Time;durP1;ratioP1;P1;durP2;ratioP2;P2;SDS_P1;SDS_P2;PMS_P1;PMS_P2;Temp;Humidity;BMP_temperature;BMP_pressure;BME280_temperature;BME280_humidity;BME280_pressure;Samples;Min_cycle;Max_cycle;Signal;HPM_P1;HPM_P2
2022/11/04 00:02:30;;;;;;;2.03;1.55;;;13.70;99.90;;;;;;10459889;28;20115;-63
2022/11/04 00:12:52;;;;;;;1.90;1.35;;;13.70;99.90;;;;;;10454696;28;20033;-63
2022/11/04 00:17:52;;;;;;;1.55;1.38;;;13.70;99.90;;;;;;10453612;28;20040;-64
2022/11/04 00:33:36;;;;;;;1.75;1.08;;;13.70;99.90;;;;;;10457262;28;20439;-63
2022/11/04 00:38:37;;;;;;;1.92;1.15;;;13.60;99.80;;;;;;10456375;28;20047;-63
2022/11/04 00:43:37;;;;;;;1.73;0.82;;;13.60;99.80;;;;;;10453271;28;20072;-63
2022/11/04 00:48:38;;;;;;;1.65;0.90;;;13.60;99.90;;;;;;10453631;28;20028;-63
2022/11/04 00:53:39;;;;;;;1.48;0.82;;;13.60;99.90;;;;;;10452744;28;20033;-63
2022/11/04 00:58:40;;;;;;;1.73;0.70;;;13.60;99.80;;;;;;10454270;28;20024;-63
2022/11/04 01:03:40;;;;;;;1.00;0.80;;;13.60;99.90;;;;;;10454294;28;20040;-63
2022/11/04 01:08:41;;;;;;;1.27;0.70;;;13.60;99.90;;;;;;10456271;28;20083;-63
2022/11/04 01:13:42;;;;;;;0.80;0.60;;;13.60;99.90;;;;;;10458141;28;20756;-63
2022/11/04 01:18:42;;;;;;;0.80;0.60;;;13.60;99.90;;;;;;10450301;28;20028;-63
2022/11/04 01:23:44;;;;;;;1.35;0.85;;;13.60;99.90;;;;;;10454368;28;20032;-63
2022/11/04 01:28:45;;;;;;;2.55;0.80;;;13.60;99.90;;;;;;10452018;28;20322;-63
2022/11/04 01:33:46;;;;;;;1.85;0.70;;;13.60;99.90;;;;;;10452143;28;20051;-63
2022/11/04 01:38:48;;;;;;;2.35;0.50;;;13.50;99.80;;;;;;10455690;28;20219;-63
2022/11/04 01:44:17;;;;;;;1.27;0.70;;;13.60;99.90;;;;;;10453691;28;20048;-63
2022/11/04 01:49:23;;;;;;;0.77;0.60;;;13.50;99.90;;;;;;10455135;28;20044;-64
2022/11/04 01:54:25;;;;;;;1.20;0.60;;;13.50;99.90;;;;;;10454968;28;20025;-64
2022/11/04 01:59:31;;;;;;;0.77;0.50;;;13.50;99.90;;;;;;10453601;28;20112;-63
2022/11/04 02:04:32;;;;;;;0.90;0.70;;;13.50;99.90;;;;;;10449133;28;20047;-64
2022/11/04 02:09:35;;;;;;;1.13;0.65;;;13.50;99.90;;;;;;10453357;28;20683;-63
2022/11/04 02:14:36;;;;;;;1.52;0.63;;;13.50;99.90;;;;;;10448533;28;20051;-63
2022/11/04 02:19:45;;;;;;;0.80;0.50;;;13.50;99.90;;;;;;10451211;28;20033;-63
2022/11/04 02:25:08;;;;;;;1.65;0.63;;;13.50;99.90;;;;;;10450664;28;20035;-63
2022/11/04 02:30:13;;;;;;;1.45;0.52;;;13.50;99.90;;;;;;10453191;28;20370;-63
2022/11/04 02:35:17;;;;;;;1.85;0.50;;;13.50;99.90;;;;;;10454681;28;20396;-63
2022/11/04 02:40:43;;;;;;;0.90;0.55;;;13.50;99.90;;;;;;10446679;28;20029;-63
2022/11/04 02:45:52;;;;;;;0.70;0.40;;;13.50;99.90;;;;;;10445736;28;20509;-63
2022/11/04 02:50:55;;;;;;;;;;;13.40;99.90;;;;;;10454051;28;20063;-63
2022/11/04 02:55:57;;;;;;;1.63;0.63;;;13.40;99.90;;;;;;10455504;28;19909;-63
2022/11/04 03:01:01;;;;;;;1.20;0.60;;;13.40;99.90;;;;;;10454917;28;20068;-63
2022/11/04 03:06:03;;;;;;;0.40;0.30;;;13.40;99.90;;;;;;10452233;28;20044;-63
2022/11/04 03:11:10;;;;;;;0.88;0.30;;;13.40;99.90;;;;;;10458411;28;20039;-63
2022/11/04 03:16:16;;;;;;;4.82;0.38;;;13.40;99.90;;;;;;10458697;28;20094;-63
2022/11/04 03:21:19;;;;;;;0.30;0.30;;;13.40;99.90;;;;;;10463838;28;20255;-62
2022/11/04 03:26:41;;;;;;;1.40;0.85;;;13.40;99.90;;;;;;10459943;28;20051;-63
2022/11/04 03:31:48;;;;;;;2.45;0.38;;;13.40;99.90;;;;;;10457859;28;20654;-63
2022/11/04 03:36:49;;;;;;;0.85;0.40;;;13.30;99.90;;;;;;10456999;28;20043;-63
2022/11/04 03:41:54;;;;;;;0.65;0.32;;;13.30;99.90;;;;;;10455446;28;20214;-63
2022/11/04 03:46:55;;;;;;;0.40;0.10;;;13.30;99.90;;;;;;10456306;28;21455;-63
2022/11/04 03:51:57;;;;;;;1.15;0.20;;;13.30;99.90;;;;;;10456601;28;20051;-63
2022/11/04 03:57:26;;;;;;;2.15;0.40;;;13.30;99.90;;;;;;10458482;28;20968;-63
2022/11/04 04:02:45;;;;;;;1.70;0.30;;;13.30;99.90;;;;;;10459908;28;20056;-63
2022/11/04 04:07:58;;;;;;;0.30;0.20;;;13.30;99.90;;;;;;10454614;28;20063;-63
2022/11/04 04:13:02;;;;;;;0.35;0.20;;;13.30;99.90;;;;;;10451341;28;20032;-63
2022/11/04 04:18:08;;;;;;;1.20;0.22;;;13.30;99.90;;;;;;10455425;28;20016;-63
2022/11/04 04:28:41;;;;;;;1.33;0.22;;;13.20;99.90;;;;;;10449887;28;20025;-63
2022/11/04 04:33:42;;;;;;;0.93;0.20;;;13.20;99.90;;;;;;10449276;28;20044;-63
2022/11/04 04:49:33;;;;;;;0.60;0.30;;;13.20;99.90;;;;;;10449736;28;20040;-63
2022/11/04 04:54:34;;;;;;;0.45;0.30;;;13.20;99.90;;;;;;10451419;28;20143;-63
2022/11/04 04:59:35;;;;;;;0.68;0.20;;;13.20;99.90;;;;;;10452901;28;20021;-63
2022/11/04 05:04:35;;;;;;;0.25;0.20;;;13.20;99.80;;;;;;10446755;28;20033;-63
2022/11/04 05:09:36;;;;;;;0.43;0.20;;;13.20;99.90;;;;;;10453568;28;20024;-64
2022/11/04 05:14:37;;;;;;;0.88;0.40;;;13.20;99.90;;;;;;10450176;28;20047;-63
2022/11/04 05:19:37;;;;;;;0.63;0.20;;;13.20;99.90;;;;;;10452459;28;20043;-63
2022/11/04 05:24:38;;;;;;;1.52;0.30;;;13.20;99.90;;;;;;10451083;28;20397;-63
2022/11/04 05:29:39;;;;;;;0.43;0.22;;;13.20;99.90;;;;;;10453213;28;20032;-63
2022/11/04 05:34:39;;;;;;;0.93;0.20;;;13.10;99.80;;;;;;10454525;28;20090;-63
2022/11/04 05:39:40;;;;;;;1.40;0.40;;;13.20;99.90;;;;;;10457493;28;20400;-63
2022/11/04 05:44:41;;;;;;;0.57;0.28;;;13.20;99.90;;;;;;10454069;28;20055;-63
2022/11/04 05:49:41;;;;;;;0.40;0.30;;;13.20;99.90;;;;;;10450007;28;20029;-63
2022/11/04 05:54:42;;;;;;;0.63;0.22;;;13.20;99.90;;;;;;10453968;28;20025;-63
2022/11/04 05:59:43;;;;;;;0.25;0.10;;;13.10;99.80;;;;;;10453977;28;20018;-63
2022/11/04 06:04:43;;;;;;;0.22;0.13;;;13.10;99.80;;;;;;10453583;28;20047;-64
2022/11/04 06:09:44;;;;;;;1.65;0.20;;;13.10;99.80;;;;;;10455378;28;20132;-64
2022/11/04 06:14:45;;;;;;;0.57;0.17;;;13.10;99.80;;;;;;10452260;28;20401;-63
2022/11/04 06:19:46;;;;;;;0.50;0.20;;;13.00;99.80;;;;;;10453907;28;20117;-63
2022/11/04 06:24:47;;;;;;;1.15;0.20;;;13.00;99.80;;;;;;10454776;28;20040;-63
2022/11/04 06:29:47;;;;;;;0.22;0.15;;;13.00;99.80;;;;;;10452410;28;20017;-63
2022/11/04 06:34:48;;;;;;;1.35;0.35;;;13.00;99.80;;;;;;10445722;28;20049;-64
2022/11/04 06:39:49;;;;;;;0.57;0.20;;;13.00;99.80;;;;;;10448704;28;20029;-63
2022/11/04 06:44:50;;;;;;;0.88;0.22;;;13.00;99.70;;;;;;10470758;28;20029;-63
2022/11/04 06:49:50;;;;;;;0.32;0.20;;;13.00;99.70;;;;;;10459984;28;20428;-63
2022/11/04 06:54:51;;;;;;;1.42;0.40;;;13.00;99.70;;;;;;10457663;28;20025;-63
2022/11/04 06:59:52;;;;;;;2.10;0.75;;;12.90;99.70;;;;;;10458382;28;20056;-63
2022/11/04 07:04:53;;;;;;;1.10;0.70;;;12.90;99.70;;;;;;10436438;28;20541;-63
2022/11/04 07:09:53;;;;;;;0.90;0.55;;;12.90;99.70;;;;;;10453180;28;20036;-63
2022/11/04 07:14:55;;;;;;;1.60;0.65;;;12.90;99.70;;;;;;10452570;28;20037;-64
2022/11/04 07:19:56;;;;;;;1.08;0.63;;;12.90;99.70;;;;;;10449858;28;20025;-63
2022/11/04 07:24:56;;;;;;;3.70;0.70;;;12.90;99.60;;;;;;10450948;28;20064;-63
2022/11/04 07:29:57;;;;;;;1.25;1.00;;;12.90;99.60;;;;;;10422833;28;20664;-63
2022/11/04 07:34:58;;;;;;;1.33;0.90;;;12.90;99.80;;;;;;10324112;28;1245731;-63
2022/11/04 07:39:59;;;;;;;2.72;1.23;;;12.90;99.60;;;;;;10372923;28;20039;-63
2022/11/04 07:45:00;;;;;;;1.77;1.08;;;12.90;99.60;;;;;;10357063;28;20156;-63
2022/11/04 07:50:01;;;;;;;2.53;0.85;;;12.90;99.60;;;;;;10372208;28;20499;-63
2022/11/04 07:55:01;;;;;;;1.25;0.90;;;12.90;99.60;;;;;;10369503;28;20025;-63
2022/11/04 08:00:05;;;;;;;1.98;1.20;;;12.90;99.50;;;;;;10373481;28;20020;-62
2022/11/04 08:05:06;;;;;;;1.77;1.00;;;12.90;99.50;;;;;;10369356;28;20113;-63
2022/11/04 08:10:08;;;;;;;1.85;1.25;;;12.90;99.50;;;;;;10370830;28;20040;-63
2022/11/04 08:15:09;;;;;;;3.10;1.17;;;12.90;99.50;;;;;;10368667;28;20037;-62
2022/11/04 08:20:11;;;;;;;2.25;1.58;;;12.90;99.50;;;;;;10374001;28;20522;-63
2022/11/04 08:25:12;;;;;;;2.95;1.50;;;12.90;99.50;;;;;;10378419;28;20075;-62
2022/11/04 08:30:13;;;;;;;2.63;1.55;;;12.90;99.50;;;;;;10366551;28;20102;-63
2022/11/04 08:35:14;;;;;;;6.05;1.92;;;12.90;99.50;;;;;;10362008;28;20048;-62
2022/11/04 08:40:14;;;;;;;4.72;1.80;;;13.00;99.50;;;;;;10376464;28;20803;-62
2022/11/04 08:45:16;;;;;;;3.92;1.70;;;13.00;99.70;;;;;;10365374;28;20518;-63
2022/11/04 08:50:16;;;;;;;3.50;1.77;;;13.00;99.40;;;;;;10377752;28;20017;-63
2022/11/04 08:55:17;;;;;;;2.47;1.50;;;13.10;99.40;;;;;;10380709;28;20922;-62
2022/11/04 09:00:18;;;;;;;3.08;1.60;;;13.10;99.30;;;;;;10379397;28;20024;-62
2022/11/04 09:05:19;;;;;;;5.60;1.92;;;13.10;99.60;;;;;;10367967;28;20256;-63
2022/11/04 09:10:20;;;;;;;3.95;2.50;;;13.20;99.30;;;;;;10375751;28;20158;-62
2022/11/04 09:15:21;;;;;;;6.72;2.00;;;13.10;99.30;;;;;;10369652;28;20036;-63
2022/11/04 09:20:22;;;;;;;4.43;2.58;;;13.20;99.30;;;;;;10371532;28;20025;-63
2022/11/04 09:25:23;;;;;;;5.15;2.45;;;13.20;99.30;;;;;;10377262;28;20607;-62
2022/11/04 09:30:24;;;;;;;5.43;2.10;;;13.20;99.30;;;;;;10371464;28;20031;-62
2022/11/04 09:35:26;;;;;;;5.13;2.63;;;13.20;99.20;;;;;;10374981;28;20165;-63
2022/11/04 09:40:28;;;;;;;5.10;2.45;;;13.20;99.30;;;;;;10377373;28;20028;-64
2022/11/04 09:45:31;;;;;;;6.13;2.90;;;13.20;99.20;;;;;;10375623;28;20671;-64
2022/11/04 09:50:45;;;;;;;5.45;3.13;;;13.20;99.20;;;;;;10384400;28;20025;-62
2022/11/04 09:55:55;;;;;;;4.78;2.60;;;13.20;99.20;;;;;;10373661;28;20028;-65
2022/11/04 10:01:04;;;;;;;4.28;2.85;;;13.20;99.20;;;;;;10365459;28;20024;-62
2022/11/04 10:06:24;;;;;;;5.95;3.20;;;13.30;99.20;;;;;;10372579;28;20040;-62
2022/11/04 10:11:44;;;;;;;5.13;3.13;;;13.30;99.20;;;;;;10368691;28;20048;-66
2022/11/04 10:16:48;;;;;;;8.30;3.25;;;13.30;99.10;;;;;;10372813;28;20482;-62
2022/11/04 10:22:09;;;;;;;5.68;3.47;;;13.40;99.20;;;;;;10368503;28;20463;-63
2022/11/04 10:27:22;;;;;;;6.45;3.80;;;13.40;99.10;;;;;;10368253;28;20492;-62
2022/11/04 10:33:03;;;;;;;6.68;3.42;;;13.40;99.10;;;;;;10358568;28;20154;-63
2022/11/04 10:38:16;;;;;;;7.30;3.33;;;13.40;99.10;;;;;;10366767;28;20396;-63
2022/11/04 10:43:35;;;;;;;6.53;3.40;;;13.50;99.10;;;;;;10369960;28;20745;-63
2022/11/04 10:49:00;;;;;;;5.75;3.63;;;13.40;99.10;;;;;;10365127;28;20122;-64
2022/11/04 10:54:04;;;;;;;8.18;3.42;;;13.50;99.10;;;;;;10353023;28;20036;-62
2022/11/04 10:59:25;;;;;;;6.15;3.40;;;13.50;99.10;;;;;;10360547;28;20029;-63
2022/11/04 11:04:32;;;;;;;7.45;3.65;;;13.80;99.20;;;;;;10363582;28;20815;-62
2022/11/04 11:09:35;;;;;;;6.07;3.58;;;13.50;99.10;;;;;;10357000;28;20047;-63
2022/11/04 11:14:37;;;;;;;7.15;3.83;;;13.50;99.10;;;;;;10363206;28;20213;-63
2022/11/04 11:19:52;;;;;;;4.40;3.08;;;13.50;99.10;;;;;;10361104;28;20037;-62
2022/11/04 11:24:53;;;;;;;6.85;3.15;;;13.60;99.00;;;;;;10362000;28;20324;-63
2022/11/04 11:29:55;;;;;;;5.32;3.17;;;13.60;99.30;;;;;;10369347;28;20297;-63
2022/11/04 11:35:00;;;;;;;6.22;3.47;;;13.60;98.90;;;;;;10370885;28;20230;-63
2022/11/04 11:40:04;;;;;;;6.83;3.30;;;13.70;98.90;;;;;;10372829;28;20659;-65
2022/11/04 11:45:15;;;;;;;5.80;2.90;;;13.70;98.90;;;;;;10373541;28;20040;-63
2022/11/04 11:50:29;;;;;;;5.63;3.25;;;13.80;98.90;;;;;;10374875;28;20136;-62
2022/11/04 11:55:35;;;;;;;7.10;3.10;;;13.70;98.80;;;;;;10368081;28;20036;-62
2022/11/04 12:00:48;;;;;;;6.25;2.63;;;13.70;98.90;;;;;;10369450;28;20037;-62
2022/11/04 12:05:58;;;;;;;6.63;3.45;;;13.70;98.90;;;;;;10370297;28;20121;-62
2022/11/04 12:11:11;;;;;;;5.55;2.92;;;13.70;98.90;;;;;;10369555;28;20488;-63
2022/11/04 12:16:24;;;;;;;3.83;2.45;;;13.70;98.90;;;;;;10371520;28;20560;-63
2022/11/04 12:21:46;;;;;;;4.25;2.42;;;13.70;98.90;;;;;;10371518;28;20032;-62
2022/11/04 12:27:06;;;;;;;3.28;2.13;;;13.70;99.00;;;;;;10363932;28;20061;-63
2022/11/04 12:32:28;;;;;;;5.20;2.80;;;13.70;99.00;;;;;;10374563;28;21470;-64
2022/11/04 12:38:03;;;;;;;3.15;2.50;;;13.70;99.10;;;;;;10371503;28;20229;-63
2022/11/04 12:43:31;;;;;;;3.92;2.20;;;13.70;99.10;;;;;;10369303;28;20497;-62
2022/11/04 12:48:53;;;;;;;3.97;2.35;;;13.70;99.10;;;;;;10363451;28;20045;-63
2022/11/04 12:54:35;;;;;;;3.05;1.70;;;13.70;99.10;;;;;;10376757;28;20036;-62
2022/11/04 12:59:52;;;;;;;2.92;2.20;;;13.60;99.10;;;;;;10366712;28;20617;-63
2022/11/04 13:04:59;;;;;;;2.20;1.55;;;13.70;99.40;;;;;;10368061;28;20564;-63
2022/11/04 13:10:06;;;;;;;5.32;1.80;;;13.70;99.10;;;;;;10368134;28;20297;-63
2022/11/04 13:15:19;;;;;;;2.60;1.85;;;13.70;99.10;;;;;;10373697;28;20186;-62
2022/11/04 13:20:44;;;;;;;2.38;1.65;;;13.70;99.10;;;;;;10369684;28;20033;-63
2022/11/04 13:25:49;;;;;;;2.25;1.80;;;13.70;99.20;;;;;;10359433;28;20565;-63
2022/11/04 13:31:21;;;;;;;2.05;1.60;;;13.70;99.20;;;;;;10367734;28;20249;-63
2022/11/04 13:36:55;;;;;;;2.33;1.33;;;13.70;99.20;;;;;;10367954;28;20076;-66
2022/11/04 13:42:21;;;;;;;3.67;1.60;;;13.70;99.20;;;;;;10369571;28;20453;-63
2022/11/04 13:47:34;;;;;;;3.03;1.30;;;13.70;99.20;;;;;;10372642;28;20048;-63
2022/11/04 13:52:47;;;;;;;2.40;1.50;;;14.10;99.30;;;;;;10369418;28;20032;-63
2022/11/04 13:57:51;;;;;;;4.20;1.40;;;13.70;99.20;;;;;;10371651;28;20032;-63
2022/11/04 14:03:21;;;;;;;5.63;1.50;;;13.70;99.20;;;;;;10367305;28;20029;-62
2022/11/04 14:08:21;;;;;;;3.78;1.50;;;13.70;99.20;;;;;;10368048;28;20041;-63
2022/11/04 14:13:36;;;;;;;2.00;1.23;;;13.70;99.20;;;;;;10369101;28;20198;-62
2022/11/04 14:18:42;;;;;;;1.67;1.30;;;13.70;99.20;;;;;;10364445;28;20067;-62
2022/11/04 14:23:55;;;;;;;2.13;1.48;;;13.70;99.30;;;;;;10369879;28;20529;-63
2022/11/04 14:29:12;;;;;;;1.50;1.10;;;13.70;99.30;;;;;;10364021;28;20036;-67
2022/11/04 14:34:36;;;;;;;2.72;1.10;;;13.60;99.20;;;;;;10373021;28;20472;-62
2022/11/04 14:39:39;;;;;;;2.67;1.00;;;13.90;99.40;;;;;;10364465;28;20111;-63
2022/11/04 14:44:46;;;;;;;1.70;1.10;;;13.70;99.30;;;;;;10365868;28;20032;-63
2022/11/04 14:49:50;;;;;;;2.85;0.90;;;13.60;99.30;;;;;;10374804;28;20025;-62
2022/11/04 14:55:19;;;;;;;1.50;1.00;;;13.60;99.30;;;;;;10365391;28;20250;-62
2022/11/04 15:00:27;;;;;;;;;;;13.60;99.40;;;;;;10354101;28;20436;-62
2022/11/04 15:05:29;;;;;;;2.77;1.30;;;13.60;99.40;;;;;;10377051;28;19920;-63
2022/11/04 15:10:30;;;;;;;2.08;0.95;;;13.60;99.40;;;;;;10372649;28;20457;-63
2022/11/04 15:15:33;;;;;;;1.27;1.00;;;13.60;99.40;;;;;;10372860;28;20064;-63
2022/11/04 15:20:51;;;;;;;3.85;0.90;;;13.60;99.40;;;;;;10375662;28;20858;-63
2022/11/04 15:25:52;;;;;;;4.72;1.10;;;13.60;99.50;;;;;;10370825;28;20036;-62
2022/11/04 15:31:19;;;;;;;1.98;1.02;;;13.60;99.50;;;;;;10378227;28;20141;-62
2022/11/04 15:36:25;;;;;;;1.98;1.00;;;13.60;99.50;;;;;;10369017;28;20052;-66
2022/11/04 15:46:57;;;;;;;2.70;0.90;;;13.50;99.50;;;;;;10373044;28;20076;-63
2022/11/04 15:52:06;;;;;;;2.22;0.95;;;13.50;99.50;;;;;;10375393;28;20128;-63
2022/11/04 15:57:24;;;;;;;1.70;0.80;;;13.50;99.60;;;;;;10373944;28;20136;-63
2022/11/04 16:02:31;;;;;;;5.00;1.23;;;13.50;99.60;;;;;;10364532;28;20032;-63
2022/11/04 16:07:42;;;;;;;1.98;0.93;;;13.40;99.60;;;;;;10367119;28;20044;-63
2022/11/04 16:12:44;;;;;;;2.03;0.77;;;13.40;99.60;;;;;;10374399;28;20701;-63
2022/11/04 16:17:44;;;;;;;1.30;0.70;;;13.40;99.60;;;;;;10375289;28;20576;-63
2022/11/04 16:22:45;;;;;;;3.47;1.10;;;13.40;99.70;;;;;;10355569;28;20391;-62
2022/11/04 16:27:46;;;;;;;2.60;0.90;;;13.40;99.70;;;;;;10361307;28;20507;-63
2022/11/04 16:33:08;;;;;;;3.38;0.95;;;13.40;99.80;;;;;;10411915;28;20140;-62
2022/11/04 16:38:09;;;;;;;1.00;0.73;;;13.30;99.80;;;;;;10447952;28;20025;-62
2022/11/04 16:43:10;;;;;;;2.35;0.90;;;13.30;99.80;;;;;;10449260;28;20017;-63
2022/11/04 16:48:16;;;;;;;3.67;1.13;;;13.30;99.80;;;;;;10444770;28;20048;-64
2022/11/04 16:53:17;;;;;;;2.50;0.73;;;13.30;99.80;;;;;;10446353;28;20359;-62
2022/11/04 16:58:18;;;;;;;5.53;1.30;;;13.20;99.80;;;;;;10445874;28;20033;-63
2022/11/04 17:03:23;;;;;;;4.65;1.08;;;13.20;99.90;;;;;;10445150;28;20065;-63
2022/11/04 17:08:25;;;;;;;4.53;1.30;;;13.20;99.90;;;;;;10448904;28;20055;-63
2022/11/04 17:13:26;;;;;;;3.28;1.40;;;13.20;99.90;;;;;;10442376;28;20240;-62
2022/11/04 17:18:30;;;;;;;3.50;1.63;;;13.20;99.90;;;;;;10446896;28;20392;-62
2022/11/04 17:23:30;;;;;;;3.08;2.05;;;13.20;99.90;;;;;;10439939;28;20044;-62
2022/11/04 17:28:32;;;;;;;7.50;1.90;;;13.10;99.90;;;;;;10444153;28;20029;-63
2022/11/04 17:33:32;;;;;;;2.33;1.55;;;13.10;99.90;;;;;;10448507;28;20037;-64
2022/11/04 17:38:33;;;;;;;4.07;1.88;;;13.00;99.90;;;;;;10445996;28;20440;-64
2022/11/04 17:48:53;;;;;;;5.03;1.52;;;13.00;99.90;;;;;;10442653;28;20882;-63
2022/11/04 17:53:54;;;;;;;6.78;1.88;;;13.00;99.90;;;;;;10443186;28;20071;-63
2022/11/04 17:58:56;;;;;;;4.00;1.48;;;13.00;99.90;;;;;;10448280;28;20032;-63
2022/11/04 18:03:57;;;;;;;3.80;1.50;;;13.00;99.80;;;;;;10446721;28;20500;-64
2022/11/04 18:08:59;;;;;;;5.57;1.70;;;12.90;99.80;;;;;;10444896;28;20112;-69
2022/11/04 18:14:00;;;;;;;5.20;1.95;;;13.00;99.90;;;;;;10444102;28;20021;-63
2022/11/04 18:19:01;;;;;;;5.03;1.50;;;13.00;99.90;;;;;;10439865;28;20037;-64
2022/11/04 18:24:03;;;;;;;4.40;1.92;;;13.00;99.80;;;;;;10448569;28;20053;-64
2022/11/04 18:29:04;;;;;;;4.93;1.50;;;12.90;99.80;;;;;;10444094;28;20041;-62
2022/11/04 18:34:08;;;;;;;3.10;1.52;;;13.00;99.80;;;;;;10442759;28;20560;-63
2022/11/04 18:39:13;;;;;;;3.75;1.60;;;12.90;99.80;;;;;;10451992;28;20490;-63
2022/11/04 18:44:17;;;;;;;3.97;1.45;;;12.90;99.80;;;;;;10448671;28;20036;-63
2022/11/04 18:49:19;;;;;;;4.10;1.58;;;12.90;99.80;;;;;;10450972;28;20029;-63
2022/11/04 18:54:20;;;;;;;4.22;1.95;;;12.90;99.80;;;;;;10453355;28;20041;-65
2022/11/04 18:59:20;;;;;;;4.32;1.42;;;12.80;99.70;;;;;;10434807;28;20650;-62
2022/11/04 19:04:21;;;;;;;3.83;1.70;;;12.80;99.70;;;;;;10443520;28;20049;-63
2022/11/04 19:09:22;;;;;;;2.90;1.60;;;12.80;99.70;;;;;;10454442;28;20021;-63
2022/11/04 19:14:22;;;;;;;4.32;1.67;;;12.80;99.70;;;;;;10443087;28;20148;-63
2022/11/04 19:19:23;;;;;;;2.03;1.30;;;12.80;99.70;;;;;;10451746;28;20397;-63
2022/11/04 19:24:24;;;;;;;7.35;1.63;;;12.80;99.70;;;;;;10444165;28;20041;-64
2022/11/04 19:29:28;;;;;;;3.45;1.40;;;12.80;99.70;;;;;;10438788;28;20596;-63
2022/11/04 19:34:29;;;;;;;3.22;1.25;;;12.70;99.60;;;;;;10453482;28;20103;-62
2022/11/04 19:39:29;;;;;;;3.47;1.50;;;12.70;99.60;;;;;;10449200;28;20489;-63
2022/11/04 19:44:31;;;;;;;4.20;1.70;;;12.70;99.60;;;;;;10437798;28;20094;-64
2022/11/04 19:49:31;;;;;;;2.42;1.35;;;12.60;99.60;;;;;;10448839;28;20154;-63
2022/11/04 19:54:32;;;;;;;2.40;1.48;;;12.70;99.60;;;;;;10456725;28;20047;-63
2022/11/04 19:59:33;;;;;;;3.97;1.15;;;12.60;99.60;;;;;;10426718;28;20017;-63
2022/11/04 20:04:34;;;;;;;4.05;1.48;;;12.60;99.50;;;;;;10422313;28;20045;-62
2022/11/04 20:09:34;;;;;;;5.80;1.40;;;12.60;99.50;;;;;;10413001;28;20029;-62
2022/11/04 20:14:35;;;;;;;3.30;1.55;;;12.60;99.50;;;;;;10425213;28;20317;-63
2022/11/04 20:19:36;;;;;;;3.50;1.70;;;12.60;99.50;;;;;;10425225;28;20064;-63
2022/11/04 20:24:37;;;;;;;4.78;1.98;;;12.50;99.50;;;;;;10436795;28;20025;-63
2022/11/04 20:29:38;;;;;;;4.18;1.20;;;12.50;99.40;;;;;;10437987;28;20104;-63
2022/11/04 20:34:39;;;;;;;4.03;1.80;;;12.50;99.50;;;;;;10430404;28;20405;-62
2022/11/04 20:39:40;;;;;;;3.88;1.85;;;12.50;99.40;;;;;;10432818;28;20035;-65
2022/11/04 20:44:41;;;;;;;3.75;1.80;;;12.50;99.40;;;;;;10436103;28;20044;-64
2022/11/04 20:49:43;;;;;;;4.70;2.13;;;12.50;99.40;;;;;;10432711;28;20246;-63
2022/11/04 20:54:44;;;;;;;3.72;1.70;;;12.50;99.30;;;;;;10427321;28;20467;-62
2022/11/04 20:59:45;;;;;;;3.45;1.88;;;12.40;99.30;;;;;;10425108;28;20310;-67
2022/11/04 21:04:46;;;;;;;4.50;2.10;;;12.40;99.30;;;;;;10435929;28;20047;-62
2022/11/04 21:09:49;;;;;;;5.05;1.90;;;12.40;99.30;;;;;;10432946;28;20166;-64
2022/11/04 21:14:51;;;;;;;3.28;2.20;;;12.40;99.30;;;;;;10425027;28;20371;-63
2022/11/04 21:19:53;;;;;;;5.20;2.17;;;12.40;99.20;;;;;;10431767;28;20037;-62
2022/11/04 21:24:53;;;;;;;4.97;2.03;;;12.40;99.30;;;;;;10430876;28;20037;-63
2022/11/04 21:29:55;;;;;;;6.03;2.00;;;12.30;99.20;;;;;;10429545;28;20334;-62
2022/11/04 21:34:56;;;;;;;3.97;1.95;;;13.10;99.40;;;;;;10436154;28;20049;-62
2022/11/04 21:39:56;;;;;;;3.53;1.88;;;12.30;99.20;;;;;;10422691;28;20151;-63
2022/11/04 21:44:57;;;;;;;2.50;1.77;;;12.30;99.20;;;;;;10424983;28;20127;-62
2022/11/04 21:49:58;;;;;;;3.15;2.13;;;12.30;99.10;;;;;;10438139;28;20508;-63
2022/11/04 21:54:59;;;;;;;3.38;1.95;;;12.30;99.10;;;;;;10432226;28;20516;-62
2022/11/04 21:59:59;;;;;;;4.72;2.15;;;12.30;99.10;;;;;;10420426;28;20021;-63
2022/11/04 22:05:00;;;;;;;5.43;2.25;;;12.20;99.10;;;;;;10423306;28;20029;-62
2022/11/04 22:10:01;;;;;;;4.70;1.92;;;12.20;99.10;;;;;;10424322;28;20025;-62
2022/11/04 22:15:02;;;;;;;3.97;2.00;;;12.20;99.10;;;;;;10434314;28;20026;-63
2022/11/04 22:20:04;;;;;;;4.43;2.13;;;12.20;99.10;;;;;;10445681;28;20028;-63
2022/11/04 22:25:06;;;;;;;3.20;1.92;;;12.20;99.10;;;;;;10435076;28;21005;-62
2022/11/04 22:30:08;;;;;;;4.32;1.52;;;12.20;99.10;;;;;;10437262;28;20113;-63
2022/11/04 22:35:09;;;;;;;5.00;1.80;;;12.20;99.00;;;;;;10414681;28;20076;-62
2022/11/04 22:40:10;;;;;;;2.67;1.40;;;12.20;99.10;;;;;;10421943;28;20024;-63
2022/11/04 22:45:11;;;;;;;3.20;1.70;;;12.10;99.00;;;;;;10435495;28;20060;-64
2022/11/04 22:50:12;;;;;;;4.95;1.80;;;12.10;99.00;;;;;;10441313;28;20029;-63
2022/11/04 22:55:13;;;;;;;4.78;1.90;;;12.10;99.00;;;;;;10441679;28;20127;-64
2022/11/04 23:00:14;;;;;;;3.22;1.80;;;12.10;99.00;;;;;;10442720;28;20037;-64
2022/11/04 23:05:15;;;;;;;3.13;1.50;;;12.10;99.00;;;;;;10447752;28;20041;-64
2022/11/04 23:26:17;;;;;;;3.05;1.45;;;12.00;98.90;;;;;;10454587;28;20037;-63
2022/11/04 23:31:18;;;;;;;2.58;1.50;;;11.90;98.80;;;;;;10460100;28;20448;-64
